Time;durP1;ratioP1;P1;durP2;ratioP2;P2;SDS_P1;SDS_P2;PMS_P1;PMS_P2;Temp;Humidity;BMP_temperature;BMP_pressure;BME280_temperature;BME280_humidity;BME280_pressure;Samples;Min_cycle;Max_cycle;Signal;HPM_P1;HPM_P2
2022/03/21 00:00:35;;;;;;;42.38;11.10;;;;;;;5.33;40.25;97572.56;5049127;28;20041;-73
2022/03/21 00:03:03;;;;;;;26.02;8.82;;;;;;;5.30;39.62;97574.94;5048943;28;20095;-73
2022/03/21 00:05:30;;;;;;;34.60;9.57;;;;;;;5.24;39.86;97574.06;5048884;28;20800;-73
2022/03/21 00:07:56;;;;;;;26.10;9.05;;;;;;;5.22;39.32;97565.41;5049875;28;20060;-73
2022/03/21 00:10:25;;;;;;;34.53;10.25;;;;;;;5.19;39.80;97576.72;5048444;28;20041;-73
2022/03/21 00:12:51;;;;;;;35.15;9.55;;;;;;;5.17;40.03;97581.56;5049280;28;20053;-73
2022/03/21 00:15:19;;;;;;;37.40;10.48;;;;;;;5.15;39.91;97579.09;5035714;28;20084;-73
2022/03/21 00:17:45;;;;;;;38.08;10.38;;;;;;;5.12;39.74;97576.91;5029650;28;20049;-73
2022/03/21 00:20:13;;;;;;;34.55;9.45;;;;;;;5.08;40.25;97572.28;5029143;28;20045;-74
2022/03/21 00:22:40;;;;;;;33.65;10.68;;;;;;;5.04;41.46;97573.84;5028862;28;20064;-73
2022/03/21 00:25:08;;;;;;;37.05;10.48;;;;;;;4.97;41.48;97574.03;5029272;28;20834;-73
2022/03/21 00:27:38;;;;;;;39.25;10.32;;;;;;;4.91;41.47;97573.16;5028789;28;20041;-73
2022/03/21 00:30:06;;;;;;;36.53;10.48;;;;;;;4.87;41.79;97573.91;5029110;28;20492;-73
2022/03/21 00:32:33;;;;;;;38.20;10.40;;;;;;;4.85;40.89;97574.16;5028730;28;20116;-74
2022/03/21 00:34:59;;;;;;;48.28;10.80;;;;;;;4.82;40.99;97582.75;5029161;28;20688;-73
2022/03/21 00:37:26;;;;;;;40.00;10.15;;;;;;;4.79;40.92;97577.84;5028243;28;20045;-75
2022/03/21 00:39:53;;;;;;;45.28;11.07;;;;;;;4.76;41.29;97581.06;5028912;28;20664;-73
2022/03/21 00:42:21;;;;;;;40.97;10.32;;;;;;;4.73;40.68;97578.88;5027907;28;20077;-76
2022/03/21 00:44:49;;;;;;;40.92;10.80;;;;;;;4.69;41.71;97580.41;5028843;28;20107;-75
2022/03/21 00:47:16;;;;;;;35.10;10.45;;;;;;;4.64;41.65;97586.56;5028871;28;20156;-75
2022/03/21 00:49:43;;;;;;;38.75;10.68;;;;;;;4.61;41.99;97578.19;5028089;28;20064;-75
2022/03/21 00:52:09;;;;;;;34.33;10.68;;;;;;;4.56;42.91;97573.53;5028486;28;20052;-75
2022/03/21 00:54:36;;;;;;;34.45;9.60;;;;;;;4.53;42.33;97589.38;5027008;28;20492;-75
2022/03/21 00:57:03;;;;;;;37.53;10.02;;;;;;;4.50;41.58;97587.19;5028684;28;20067;-75
2022/03/21 00:59:29;;;;;;;36.38;9.43;;;;;;;4.47;41.83;97587.69;5028262;28;20040;-75
2022/03/21 01:01:57;;;;;;;81.97;11.38;;;;;;;4.42;42.37;97586.53;5028616;28;20048;-75
2022/03/21 01:04:24;;;;;;;38.42;9.30;;;;;;;4.39;42.54;97578.16;5027784;28;20065;-74
2022/03/21 01:06:51;;;;;;;36.80;9.68;;;;;;;4.36;42.95;97578.63;5028212;28;20058;-75
2022/03/21 01:09:17;;;;;;;28.30;9.57;;;;;;;4.30;44.22;97585.03;5028386;28;20483;-75
2022/03/21 01:11:44;;;;;;;83.40;15.00;;;;;;;4.21;45.16;97590.00;5027939;28;20508;-75
2022/03/21 01:14:11;;;;;;;54.85;13.52;;;;;;;4.13;43.87;97587.75;5028083;28;20053;-75
2022/03/21 01:16:37;;;;;;;53.17;9.65;;;;;;;4.08;44.15;97588.47;5027605;28;20045;-75
2022/03/21 01:19:05;;;;;;;37.92;9.23;;;;;;;4.06;43.42;97589.78;5028344;28;20053;-74
2022/03/21 01:21:32;;;;;;;39.15;9.88;;;;;;;4.02;44.43;97583.22;5027902;28;20053;-75
2022/03/21 01:23:59;;;;;;;54.47;10.43;;;;;;;3.98;44.37;97587.50;5028031;28;20719;-75
2022/03/21 01:26:25;;;;;;;44.28;9.68;;;;;;;3.95;43.71;97579.91;5027602;28;20057;-75
2022/03/21 01:28:52;;;;;;;53.35;10.80;;;;;;;3.92;44.11;97581.22;5027922;28;20065;-75
2022/03/21 01:31:18;;;;;;;35.28;9.60;;;;;;;3.86;44.84;97584.88;5027687;28;20057;-74
2022/03/21 01:33:45;;;;;;;43.90;9.95;;;;;;;3.79;45.02;97584.22;5027232;28;20049;-75
2022/03/21 01:36:12;;;;;;;44.90;10.57;;;;;;;3.71;46.28;97580.06;5027499;28;20061;-75
2022/03/21 01:38:39;;;;;;;39.38;10.13;;;;;;;3.66;46.74;97585.38;5026951;28;20053;-75
2022/03/21 01:41:06;;;;;;;47.53;10.93;;;;;;;3.60;46.62;97587.16;5027901;28;20049;-74
2022/03/21 01:43:32;;;;;;;44.35;10.05;;;;;;;3.56;46.21;97591.41;5026427;28;20049;-75
2022/03/21 01:45:58;;;;;;;40.28;9.38;;;;;;;3.52;44.89;97594.81;5044999;28;20080;-75
2022/03/21 01:48:25;;;;;;;40.40;9.18;;;;;;;3.52;45.19;97589.41;5046464;28;20096;-75
2022/03/21 01:50:52;;;;;;;41.92;9.85;;;;;;;3.50;45.20;97586.13;5047526;28;20471;-75
2022/03/21 01:56:04;;;;;;;40.38;9.68;;;;;;;3.45;45.58;97588.78;5046313;28;20114;-74
2022/03/21 01:58:32;;;;;;;40.95;9.65;;;;;;;3.45;45.88;97588.78;5047461;28;20041;-75
2022/03/21 02:00:58;;;;;;;39.10;9.75;;;;;;;3.42;45.29;97594.63;5046426;28;20531;-75
2022/03/21 02:03:25;;;;;;;36.88;9.73;;;;;;;3.39;45.40;97591.38;5047027;28;20060;-74
2022/03/21 02:05:51;;;;;;;36.58;9.95;;;;;;;3.32;46.42;97588.00;5046306;28;20057;-75
2022/03/21 02:08:18;;;;;;;45.88;10.55;;;;;;;3.27;46.97;97587.91;5046987;28;20060;-75
2022/03/21 02:10:51;;;;;;;43.90;10.18;;;;;;;3.22;46.56;97593.19;5046620;28;20091;-75
2022/03/21 02:13:19;;;;;;;51.45;10.32;;;;;;;3.16;46.73;97602.22;5046495;28;20060;-74
2022/03/21 02:15:46;;;;;;;45.80;9.80;;;;;;;3.10;47.43;97587.84;5045428;28;20053;-74
2022/03/21 02:18:13;;;;;;;47.53;9.75;;;;;;;3.09;47.28;97593.47;5045859;28;20049;-75
2022/03/21 02:20:41;;;;;;;54.33;10.32;;;;;;;3.05;46.92;97589.63;5046927;28;20788;-74
2022/03/21 02:23:13;;;;;;;63.67;10.77;;;;;;;3.01;46.87;97588.47;5045484;28;20095;-75
2022/03/21 02:25:43;;;;;;;51.63;9.98;;;;;;;2.93;47.71;97588.88;5047126;28;20064;-74
2022/03/21 02:28:11;;;;;;;49.63;10.05;;;;;;;2.87;48.25;97594.13;5045829;28;20053;-75
2022/03/21 02:30:40;;;;;;;59.30;10.88;;;;;;;2.81;47.67;97589.69;5046654;28;20047;-75
2022/03/21 02:33:07;;;;;;;56.40;10.35;;;;;;;2.74;48.55;97583.63;5045832;28;20048;-74
2022/03/21 02:35:33;;;;;;;57.70;10.48;;;;;;;2.71;48.08;97584.09;5046192;28;20053;-74
2022/03/21 02:38:01;;;;;;;53.83;9.82;;;;;;;2.69;48.44;97586.22;5046642;28;20073;-75
2022/03/21 02:40:28;;;;;;;58.25;9.75;;;;;;;2.68;47.96;97589.97;5045880;28;20041;-74
2022/03/21 02:42:56;;;;;;;29.27;9.35;;;;;;;2.70;47.63;97590.53;5047194;28;20523;-75
2022/03/21 02:45:22;;;;;;;39.50;10.75;;;;;;;2.71;47.12;97594.03;5043850;28;20415;-75
2022/03/21 02:47:49;;;;;;;36.08;9.95;;;;;;;2.70;47.04;97593.22;5046841;28;20063;-74
2022/03/21 02:50:19;;;;;;;31.42;9.55;;;;;;;2.69;47.14;97596.97;5045578;28;20045;-75
2022/03/21 02:52:47;;;;;;;93.10;15.43;;;;;;;2.68;48.23;97595.34;5045867;28;20106;-74
2022/03/21 02:55:13;;;;;;;44.40;11.00;;;;;;;2.63;48.40;97587.16;5043456;28;20044;-74
2022/03/21 02:57:40;;;;;;;58.75;11.35;;;;;;;2.59;48.32;97594.06;5046396;28;20044;-75
2022/03/21 03:00:09;;;;;;;39.58;10.63;;;;;;;2.55;48.90;97600.97;5045301;28;20527;-75
2022/03/21 03:02:36;;;;;;;50.10;10.48;;;;;;;2.53;48.65;97603.09;5044656;28;20452;-74
2022/03/21 03:05:02;;;;;;;44.53;10.48;;;;;;;2.48;49.45;97613.72;5045939;28;20052;-75
2022/03/21 03:07:29;;;;;;;34.55;9.45;;;;;;;2.45;50.04;97614.19;5044590;28;20052;-75
2022/03/21 03:09:55;;;;;;;49.20;11.05;;;;;;;2.42;49.76;97617.38;5046422;28;20048;-75
2022/03/21 03:12:22;;;;;;;44.47;10.10;;;;;;;2.37;49.55;97619.94;5045203;28;20056;-75
2022/03/21 03:14:48;;;;;;;91.70;15.75;;;;;;;2.30;49.39;97615.50;5044116;28;20076;-75
2022/03/21 03:17:16;;;;;;;49.53;11.18;;;;;;;2.22;49.84;97606.97;5042837;28;20052;-74
2022/03/21 03:19:42;;;;;;;64.70;11.43;;;;;;;2.16;50.30;97614.09;5045388;28;20053;-75
2022/03/21 03:22:09;;;;;;;42.92;10.70;;;;;;;2.10;50.53;97609.66;5045197;28;20049;-75
2022/03/21 03:24:37;;;;;;;34.72;9.95;;;;;;;2.09;49.93;97610.72;5045490;28;20049;-75
2022/03/21 03:27:05;;;;;;;47.15;11.38;;;;;;;2.06;50.38;97613.84;5045313;28;20056;-75
2022/03/21 03:29:32;;;;;;;41.95;10.57;;;;;;;2.03;51.29;97619.66;5044340;28;20085;-74
2022/03/21 03:32:00;;;;;;;39.03;11.32;;;;;;;2.02;50.98;97618.03;5043137;28;20056;-74
2022/03/21 03:34:28;;;;;;;35.17;9.77;;;;;;;2.01;50.19;97622.59;5044427;28;20441;-75
2022/03/21 03:36:54;;;;;;;37.08;9.20;;;;;;;2.02;49.94;97618.03;5045984;28;20052;-75
2022/03/21 03:39:21;;;;;;;34.88;9.77;;;;;;;1.99;50.01;97615.84;5044984;28;20059;-75
2022/03/21 03:41:48;;;;;;;47.78;11.45;;;;;;;1.98;49.77;97616.88;5045463;28;20048;-75
2022/03/21 03:44:16;;;;;;;48.45;11.13;;;;;;;1.97;50.30;97615.22;5040786;28;20045;-75
2022/03/21 03:46:43;;;;;;;56.25;10.80;;;;;;;1.93;50.78;97614.06;5025039;28;20046;-75
2022/03/21 03:49:09;;;;;;;38.22;10.18;;;;;;;1.91;51.01;97626.91;5025454;28;20480;-75
2022/03/21 03:51:37;;;;;;;49.53;11.07;;;;;;;1.89;50.82;97626.34;5025423;28;20045;-75
2022/03/21 03:54:04;;;;;;;42.05;10.48;;;;;;;1.86;50.61;97624.09;5025799;28;20071;-74
2022/03/21 03:56:30;;;;;;;42.33;10.23;;;;;;;1.85;51.07;97628.66;5024774;28;20133;-74
2022/03/21 03:58:57;;;;;;;41.25;10.00;;;;;;;1.83;51.51;97626.22;5025996;28;20057;-74
2022/03/21 04:01:23;;;;;;;36.78;9.68;;;;;;;1.81;51.42;97620.22;5023984;28;20056;-74
2022/03/21 04:03:49;;;;;;;52.42;10.48;;;;;;;1.80;51.47;97625.84;5025964;28;20052;-74
2022/03/21 04:06:17;;;;;;;45.45;12.23;;;;;;;1.76;51.51;97620.09;5024764;28;20053;-75
2022/03/21 04:08:45;;;;;;;44.17;13.93;;;;;;;1.74;51.60;97622.22;5025481;28;20547;-75
2022/03/21 04:11:13;;;;;;;46.83;12.93;;;;;;;1.75;51.58;97629.22;5025022;28;20570;-75
2022/03/21 04:13:39;;;;;;;51.85;12.80;;;;;;;1.73;51.55;97627.81;5025489;28;20045;-75
2022/03/21 04:16:07;;;;;;;35.10;9.82;;;;;;;1.71;51.70;97628.03;5025621;28;20080;-75
2022/03/21 04:18:34;;;;;;;47.90;11.27;;;;;;;1.69;52.24;97632.81;5024877;28;20049;-75
2022/03/21 04:21:00;;;;;;;44.97;10.55;;;;;;;1.65;52.45;97628.97;5026313;28;20057;-74
2022/03/21 04:23:27;;;;;;;43.17;10.38;;;;;;;1.58;52.35;97628.25;5025125;28;20053;-74
2022/03/21 04:25:55;;;;;;;35.10;10.50;;;;;;;1.54;52.01;97635.13;5025565;28;20137;-74
2022/03/21 04:28:21;;;;;;;39.22;11.10;;;;;;;1.52;52.22;97634.53;5025479;28;21019;-75
2022/03/21 04:30:48;;;;;;;49.05;11.63;;;;;;;1.51;52.00;97638.25;5028992;28;20049;-74
2022/03/21 04:33:15;;;;;;;43.17;11.07;;;;;;;1.53;52.17;97641.53;5028489;28;20050;-74
2022/03/21 04:35:42;;;;;;;58.05;11.35;;;;;;;1.52;52.51;97646.09;5028187;28;20049;-75
2022/03/21 04:38:14;;;;;;;29.13;9.45;;;;;;;1.53;53.02;97645.03;5028924;28;20048;-74
2022/03/21 04:40:41;;;;;;;51.58;11.40;;;;;;;1.51;52.97;97643.63;5028216;28;20049;-74
2022/03/21 04:43:09;;;;;;;38.92;10.40;;;;;;;1.50;53.05;97641.97;5029244;28;20049;-74
2022/03/21 04:45:36;;;;;;;42.15;11.15;;;;;;;1.50;53.95;97641.97;5042429;28;20435;-74
2022/03/21 04:48:03;;;;;;;40.65;10.00;;;;;;;1.51;52.96;97647.16;5048647;28;20045;-75
2022/03/21 04:50:29;;;;;;;38.28;9.98;;;;;;;1.53;53.16;97649.59;5048361;28;20056;-75
2022/03/21 04:52:56;;;;;;;47.17;11.38;;;;;;;1.55;53.04;97650.16;5048870;28;20053;-74
2022/03/21 04:55:22;;;;;;;43.75;10.73;;;;;;;1.53;52.58;97654.97;5047939;28;20049;-75
2022/03/21 04:57:49;;;;;;;49.78;12.15;;;;;;;1.49;52.80;97643.03;5048580;28;20064;-75
2022/03/21 05:00:17;;;;;;;46.35;12.85;;;;;;;1.47;53.51;97643.28;5046936;28;20060;-74
2022/03/21 05:02:43;;;;;;;53.33;11.55;;;;;;;1.48;52.92;97649.47;5047886;28;20045;-74
2022/03/21 05:05:10;;;;;;;41.83;10.68;;;;;;;1.49;53.12;97651.09;5047934;28;20064;-74
2022/03/21 05:07:40;;;;;;;52.38;11.85;;;;;;;1.49;53.44;97651.09;5030345;28;20054;-74
2022/03/21 05:10:07;;;;;;;62.33;13.95;;;;;;;1.45;53.74;97660.63;5026799;28;20069;-75
2022/03/21 05:12:33;;;;;;;52.42;12.93;;;;;;;1.43;53.62;97654.69;5025324;28;20843;-76
2022/03/21 05:15:00;;;;;;;52.30;12.45;;;;;;;1.40;54.06;97657.81;5027373;28;20049;-75
2022/03/21 05:17:30;;;;;;;56.25;12.20;;;;;;;1.40;54.21;97664.00;5026136;28;20049;-74
2022/03/21 05:19:56;;;;;;;56.80;12.93;;;;;;;1.40;54.28;97663.19;5026632;28;20053;-75
2022/03/21 05:22:23;;;;;;;42.35;10.52;;;;;;;1.37;54.90;97667.16;5027551;28;20045;-75
2022/03/21 05:35:58;;;;;;;38.17;11.10;;;;;;;1.20;55.20;97675.03;5028194;28;20087;-74
2022/03/21 05:38:26;;;;;;;62.50;12.40;;;;;;;1.23;55.66;97679.91;5025407;28;20400;-75
2022/03/21 05:40:56;;;;;;;51.30;12.05;;;;;;;1.29;55.89;97676.31;5027550;28;20057;-74
2022/03/21 05:43:23;;;;;;;44.63;11.60;;;;;;;1.31;55.94;97673.44;5026757;28;20057;-75
2022/03/21 05:45:51;;;;;;;46.65;11.73;;;;;;;1.39;55.94;97666.91;5027626;28;20056;-74
2022/03/21 05:51:04;;;;;;;52.70;12.40;;;;;;;1.46;55.31;97686.44;5026773;28;20460;-74
2022/03/21 05:53:30;;;;;;;35.38;11.57;;;;;;;1.50;55.44;97690.31;5027325;28;20056;-74
2022/03/21 05:55:58;;;;;;;39.67;11.93;;;;;;;1.54;55.71;97691.50;5026780;28;20716;-74
2022/03/21 05:58:25;;;;;;;39.95;11.45;;;;;;;1.56;55.80;97692.88;5027178;28;20830;-73
2022/03/21 06:00:51;;;;;;;47.38;11.60;;;;;;;1.63;55.42;97698.19;5026772;28;20064;-75
2022/03/21 06:03:19;;;;;;;40.72;11.73;;;;;;;1.62;55.18;97701.06;5026580;28;20057;-74
2022/03/21 06:05:45;;;;;;;46.13;12.30;;;;;;;1.58;54.78;97698.06;5026582;28;20053;-74
2022/03/21 06:08:12;;;;;;;50.60;12.50;;;;;;;1.66;54.88;97703.09;5026925;28;20056;-74
2022/03/21 06:10:38;;;;;;;36.70;10.80;;;;;;;1.76;55.04;97703.34;5026908;28;20045;-74
2022/03/21 06:13:06;;;;;;;41.17;11.55;;;;;;;1.83;55.12;97709.47;5026678;28;20049;-74
2022/03/21 06:15:33;;;;;;;46.05;12.15;;;;;;;1.94;55.06;97710.56;5040350;28;20044;-75
2022/03/21 06:18:01;;;;;;;43.38;11.77;;;;;;;2.05;54.43;97711.63;5046359;28;20053;-74
2022/03/21 06:20:29;;;;;;;49.58;12.30;;;;;;;2.12;55.00;97704.28;5047264;28;20388;-74
2022/03/21 06:22:57;;;;;;;36.90;11.10;;;;;;;2.22;54.05;97703.72;5046667;28;20048;-74
2022/03/21 06:25:24;;;;;;;41.53;11.15;;;;;;;2.34;53.27;97710.72;5047019;28;20048;-76
2022/03/21 06:27:51;;;;;;;34.80;10.77;;;;;;;2.43;52.79;97715.78;5046543;28;20053;-74
2022/03/21 06:30:17;;;;;;;40.97;11.15;;;;;;;2.49;50.92;97720.22;5047260;28;20053;-75
2022/03/21 06:32:43;;;;;;;34.28;10.27;;;;;;;2.57;51.58;97733.34;5046417;28;20048;-74
2022/03/21 06:35:10;;;;;;;47.67;11.77;;;;;;;2.71;51.37;97733.91;5046314;28;20053;-74
2022/03/21 06:37:40;;;;;;;42.13;10.52;;;;;;;2.79;50.32;97729.00;5047161;28;20051;-74
2022/03/21 06:40:08;;;;;;;38.67;10.70;;;;;;;2.85;49.40;97729.94;5046330;28;20049;-74
2022/03/21 06:42:34;;;;;;;38.05;10.18;;;;;;;2.91;48.74;97731.69;5047187;28;20056;-74
2022/03/21 06:45:01;;;;;;;48.72;11.90;;;;;;;3.00;48.34;97732.97;5035460;28;20045;-74
2022/03/21 06:47:27;;;;;;;34.35;10.43;;;;;;;3.10;48.71;97737.75;5026284;28;20049;-74
2022/03/21 06:49:54;;;;;;;41.58;11.27;;;;;;;3.21;49.20;97739.59;5026315;28;20576;-75
2022/03/21 06:52:21;;;;;;;37.38;11.07;;;;;;;3.31;48.97;97734.44;5025704;28;20433;-75
2022/03/21 06:54:49;;;;;;;34.63;12.38;;;;;;;3.37;48.25;97728.09;5026335;28;20088;-74
2022/03/21 06:57:17;;;;;;;34.50;12.25;;;;;;;3.49;48.21;97732.63;5026404;28;20099;-75
2022/03/21 06:59:43;;;;;;;29.50;10.07;;;;;;;3.53;47.71;97731.09;5026580;28;20087;-74
2022/03/21 07:02:10;;;;;;;33.88;10.30;;;;;;;3.62;46.85;97737.75;5025745;28;20140;-74
2022/03/21 07:04:36;;;;;;;27.85;9.68;;;;;;;3.75;47.13;97739.34;5026797;28;20049;-74
2022/03/21 07:07:03;;;;;;;29.58;10.63;;;;;;;3.90;48.76;97742.31;5025564;28;20531;-74
2022/03/21 07:09:30;;;;;;;34.80;10.23;;;;;;;3.97;46.63;97747.56;5026820;28;20061;-74
2022/03/21 07:11:58;;;;;;;61.42;12.63;;;;;;;4.09;46.16;97751.03;5025733;28;20053;-75
2022/03/21 07:14:24;;;;;;;39.20;9.82;;;;;;;4.17;44.73;97758.72;5031251;28;20415;-73
2022/03/21 07:16:51;;;;;;;60.25;11.60;;;;;;;4.30;43.89;97753.03;5045714;28;20052;-72
2022/03/21 07:19:17;;;;;;;38.75;11.23;;;;;;;4.74;42.73;97752.38;5045772;28;20076;-72
2022/03/21 07:21:44;;;;;;;46.85;10.35;;;;;;;5.41;42.18;97758.47;5045960;28;20049;-74
2022/03/21 07:24:10;;;;;;;131.27;33.20;;;;;;;6.08;40.99;97764.69;5045908;28;20049;-74
2022/03/21 07:26:38;;;;;;;32.80;9.77;;;;;;;6.59;40.22;97757.88;5046259;28;20052;-72
2022/03/21 07:29:06;;;;;;;44.38;10.02;;;;;;;7.05;38.76;97750.94;5045839;28;20053;-73
2022/03/21 07:31:33;;;;;;;32.30;10.00;;;;;;;7.54;40.82;97756.06;5046826;28;20040;-73
2022/03/21 07:34:00;;;;;;;38.83;10.57;;;;;;;8.00;37.31;97761.66;5045673;28;20052;-72
2022/03/21 07:36:26;;;;;;;28.17;9.68;;;;;;;8.40;36.90;97760.16;5045970;28;20052;-73
2022/03/21 07:38:53;;;;;;;27.17;9.73;;;;;;;8.77;35.97;97759.94;5032777;28;20053;-73
2022/03/21 07:41:23;;;;;;;31.30;10.65;;;;;;;9.20;36.91;97767.75;5046091;28;20064;-74
2022/03/21 07:43:50;;;;;;;31.98;10.57;;;;;;;9.46;34.81;97766.63;5045652;28;20106;-73
2022/03/21 07:49:02;;;;;;;31.08;10.75;;;;;;;10.33;34.63;97763.53;5026141;28;20056;-73
2022/03/21 07:51:28;;;;;;;29.10;10.30;;;;;;;10.69;32.56;97770.34;5025625;28;20103;-73
2022/03/21 07:53:55;;;;;;;26.02;10.27;;;;;;;10.55;31.78;97772.13;5026483;28;20054;-72
2022/03/21 07:56:21;;;;;;;27.60;9.57;;;;;;;10.96;32.72;97771.78;5025112;28;20045;-73
2022/03/21 07:58:48;;;;;;;30.35;10.95;;;;;;;11.34;31.03;97772.81;5026942;28;20060;-73
2022/03/21 08:01:14;;;;;;;32.83;10.38;;;;;;;11.00;32.75;97775.56;5025364;28;20052;-72
2022/03/21 08:03:43;;;;;;;41.45;10.98;;;;;;;11.34;31.33;97774.72;5028514;28;20053;-72
2022/03/21 08:06:10;;;;;;;35.17;9.95;;;;;;;11.73;30.71;97775.38;5028499;28;20057;-72
2022/03/21 08:08:37;;;;;;;53.03;13.60;;;;;;;12.21;30.83;97782.72;5029653;28;20061;-72
2022/03/21 08:11:05;;;;;;;32.55;10.07;;;;;;;12.71;30.14;97778.47;5029282;28;20080;-74
2022/03/21 08:13:31;;;;;;;37.38;11.13;;;;;;;12.93;29.90;97787.97;5029823;28;20045;-72
2022/03/21 08:15:59;;;;;;;31.80;10.38;;;;;;;13.16;28.77;97784.31;5047482;28;20052;-72
2022/03/21 08:18:25;;;;;;;38.08;10.65;;;;;;;13.37;27.82;97784.00;5048878;28;20392;-72
2022/03/21 08:20:53;;;;;;;26.45;9.68;;;;;;;13.55;28.77;97791.31;5050565;28;20087;-72
2022/03/21 08:23:19;;;;;;;23.73;10.45;;;;;;;13.89;29.19;97779.97;5049528;28;20057;-72
2022/03/21 08:25:46;;;;;;;35.47;11.13;;;;;;;14.33;27.42;97793.00;5049760;28;20060;-72
2022/03/21 08:28:15;;;;;;;26.70;10.50;;;;;;;14.75;26.59;97785.53;5049003;28;20526;-72
2022/03/21 08:30:42;;;;;;;36.00;10.90;;;;;;;14.95;26.61;97794.41;5049651;28;20068;-72
2022/03/21 08:33:11;;;;;;;27.38;10.48;;;;;;;15.33;27.79;97797.56;5048711;28;20060;-72
2022/03/21 08:35:39;;;;;;;40.65;12.40;;;;;;;15.62;26.02;97797.09;5049310;28;20048;-72
2022/03/21 08:38:08;;;;;;;32.80;10.93;;;;;;;15.76;25.56;97795.06;5048535;28;20052;-72
2022/03/21 08:40:36;;;;;;;44.85;13.70;;;;;;;15.98;25.00;97791.47;5048477;28;20064;-73
2022/03/21 08:43:03;;;;;;;30.40;10.55;;;;;;;15.89;24.02;97796.91;5049274;28;20053;-72
2022/03/21 08:45:30;;;;;;;35.70;11.73;;;;;;;15.91;24.18;97797.41;5033876;28;20060;-72
2022/03/21 08:47:56;;;;;;;33.55;11.10;;;;;;;15.82;23.51;97799.31;5029327;28;20050;-72
2022/03/21 08:50:22;;;;;;;46.83;13.15;;;;;;;15.47;24.89;97800.25;5027423;28;20049;-72
2022/03/21 08:52:49;;;;;;;34.05;11.80;;;;;;;15.35;24.00;97798.06;5028254;28;20512;-72
2022/03/21 08:55:17;;;;;;;34.45;11.75;;;;;;;15.54;24.42;97806.09;5027451;28;20049;-72
2022/03/21 08:57:43;;;;;;;33.72;11.35;;;;;;;15.87;25.41;97806.63;5028236;28;20052;-72
2022/03/21 09:00:11;;;;;;;26.70;10.90;;;;;;;16.04;24.96;97803.13;5028423;28;20058;-72
2022/03/21 09:02:39;;;;;;;31.65;11.32;;;;;;;16.27;24.87;97804.63;5028433;28;20048;-73
2022/03/21 09:05:06;;;;;;;26.77;9.88;;;;;;;16.49;23.59;97800.16;5028890;28;20045;-72
2022/03/21 09:07:33;;;;;;;31.33;10.68;;;;;;;16.76;23.97;97797.16;5027891;28;20069;-73
2022/03/21 09:10:00;;;;;;;27.50;10.52;;;;;;;16.51;25.33;97797.91;5028950;28;20053;-72
2022/03/21 09:12:29;;;;;;;25.10;10.25;;;;;;;16.40;23.80;97798.19;5027096;28;20411;-73
2022/03/21 09:14:55;;;;;;;31.50;11.10;;;;;;;16.39;23.82;97791.09;5036284;28;20136;-73
2022/03/21 09:17:22;;;;;;;30.92;10.60;;;;;;;16.19;23.89;97794.44;5047418;28;20083;-73
2022/03/21 09:19:48;;;;;;;34.25;11.65;;;;;;;15.60;25.80;97793.84;5048260;28;20057;-72
2022/03/21 09:22:15;;;;;;;30.02;10.18;;;;;;;15.43;25.26;97793.75;5048014;28;20060;-72
2022/03/21 09:24:41;;;;;;;32.58;11.77;;;;;;;15.23;25.29;97790.41;5048114;28;20389;-72
2022/03/21 09:27:08;;;;;;;30.65;10.73;;;;;;;15.04;25.48;97793.34;5048318;28;20312;-72
2022/03/21 09:29:36;;;;;;;33.28;10.88;;;;;;;14.80;26.09;97792.81;5046568;28;20118;-72
2022/03/21 09:32:03;;;;;;;27.73;10.55;;;;;;;15.02;25.81;97792.03;5048213;28;20703;-72
2022/03/21 09:34:31;;;;;;;28.63;10.98;;;;;;;15.16;25.77;97790.03;5047532;28;20515;-72
2022/03/21 09:36:57;;;;;;;32.72;11.30;;;;;;;15.17;26.08;97780.69;5048299;28;20156;-72
2022/03/21 09:39:24;;;;;;;29.63;10.25;;;;;;;15.17;26.03;97786.16;5047533;28;20056;-72
2022/03/21 09:41:51;;;;;;;38.40;12.07;;;;;;;15.26;25.48;97778.81;5048462;28;20045;-72
2022/03/21 09:44:18;;;;;;;30.60;10.90;;;;;;;15.05;25.09;97777.69;5045993;28;20041;-72
2022/03/21 09:46:47;;;;;;;32.88;11.95;;;;;;;15.30;27.77;97779.00;5041874;28;20049;-73
2022/03/21 09:49:16;;;;;;;23.23;10.50;;;;;;;15.51;26.41;97784.75;5047548;28;20049;-72
2022/03/21 09:51:44;;;;;;;28.67;10.80;;;;;;;16.07;24.95;97777.72;5047392;28;20053;-73
2022/03/21 09:54:10;;;;;;;26.13;10.65;;;;;;;16.20;24.49;97773.25;5047768;28;20052;-73
2022/03/21 09:56:37;;;;;;;36.75;14.63;;;;;;;16.37;23.96;97779.59;5046676;28;20121;-72
2022/03/21 09:59:04;;;;;;;24.83;10.70;;;;;;;16.32;24.33;97777.00;5047381;28;20052;-72
2022/03/21 10:01:32;;;;;;;25.40;10.10;;;;;;;16.56;25.76;97775.75;5046810;28;20135;-72
2022/03/21 10:04:00;;;;;;;35.03;12.02;;;;;;;16.64;23.74;97774.94;5047720;28;20040;-73
2022/03/21 10:06:32;;;;;;;30.02;11.55;;;;;;;16.69;23.65;97775.56;5046972;28;20076;-72
2022/03/21 10:09:13;;;;;;;45.05;13.95;;;;;;;16.88;23.83;97778.03;5046144;28;20045;-72
2022/03/21 10:11:40;;;;;;;39.50;12.30;;;;;;;16.84;22.63;97773.50;5047592;28;20450;-74
2022/03/21 10:14:28;;;;;;;32.38;12.27;;;;;;;16.68;23.33;97767.66;5043544;28;20526;-74
2022/03/21 10:16:56;;;;;;;34.97;12.35;;;;;;;16.64;23.92;97761.19;5026724;28;20049;-72
2022/03/21 10:19:25;;;;;;;28.65;10.98;;;;;;;16.59;23.99;97769.59;5024975;28;20048;-74
2022/03/21 10:22:08;;;;;;;35.88;11.95;;;;;;;16.34;24.25;97762.91;5004828;28;20053;-73
2022/03/21 10:24:39;;;;;;;33.55;11.98;;;;;;;15.99;25.26;97756.56;5025865;28;20044;-72
2022/03/21 10:27:07;;;;;;;31.88;11.57;;;;;;;15.93;25.64;97755.09;5025518;28;20053;-72
2022/03/21 10:29:50;;;;;;;30.40;10.77;;;;;;;15.70;24.59;97759.84;5027415;28;20054;-72
2022/03/21 10:32:30;;;;;;;27.27;11.10;;;;;;;15.55;25.44;97755.53;5026570;28;20046;-72
2022/03/21 10:35:02;;;;;;;41.78;12.13;;;;;;;15.09;25.75;97759.50;5027652;28;20076;-72
2022/03/21 10:37:41;;;;;;;34.80;11.93;;;;;;;15.01;25.56;97754.75;5026491;28;20134;-72
2022/03/21 10:40:17;;;;;;;32.53;12.18;;;;;;;14.83;25.61;97757.38;5018897;28;20053;-72
2022/03/21 10:42:50;;;;;;;30.02;11.10;;;;;;;14.74;28.46;97751.00;5026173;28;20046;-74
2022/03/21 10:45:16;;;;;;;;;;;;;;;14.75;26.31;97758.09;5038250;28;20052;-74
2022/03/21 10:47:48;;;;;;;34.90;12.68;;;;;;;14.66;26.10;97756.41;5045944;28;19924;-73
2022/03/21 10:50:27;;;;;;;30.88;11.50;;;;;;;14.71;26.28;97756.28;5045462;28;20049;-73
2022/03/21 10:53:04;;;;;;;29.20;12.00;;;;;;;14.63;26.35;97748.81;5047355;28;20041;-74
2022/03/21 10:55:32;;;;;;;34.38;11.75;;;;;;;14.30;26.31;97755.28;5047541;28;20049;-74
2022/03/21 10:57:58;;;;;;;32.38;11.45;;;;;;;14.23;27.25;97751.31;5046185;28;20041;-75
2022/03/21 11:00:26;;;;;;;24.08;10.57;;;;;;;14.35;26.98;97749.69;5046605;28;20048;-74
2022/03/21 11:02:56;;;;;;;33.22;12.63;;;;;;;14.30;28.52;97752.56;5046509;28;20045;-74
2022/03/21 11:05:26;;;;;;;35.92;12.93;;;;;;;14.31;27.99;97737.72;5046677;28;20060;-74
2022/03/21 11:07:53;;;;;;;27.67;11.55;;;;;;;14.36;26.28;97743.09;5044816;28;20051;-74
2022/03/21 11:10:21;;;;;;;28.42;11.27;;;;;;;14.55;27.47;97753.09;5047100;28;20052;-73
2022/03/21 11:12:47;;;;;;;33.20;11.70;;;;;;;14.74;26.54;97734.56;5046282;28;20586;-74
2022/03/21 11:15:14;;;;;;;31.40;11.43;;;;;;;14.75;27.00;97730.69;5033987;28;20057;-74
2022/03/21 11:17:43;;;;;;;29.33;11.20;;;;;;;14.85;27.81;97735.13;5026051;28;20073;-74
2022/03/21 11:20:12;;;;;;;30.88;12.63;;;;;;;15.07;28.63;97731.56;5026226;28;20053;-74
2022/03/21 11:22:41;;;;;;;29.00;12.18;;;;;;;15.26;27.86;97728.59;5026500;28;20060;-74
2022/03/21 11:25:10;;;;;;;32.42;12.73;;;;;;;15.48;29.91;97733.22;5025787;28;20050;-74
2022/03/21 11:27:58;;;;;;;26.77;11.60;;;;;;;15.44;28.58;97729.47;5026357;28;20056;-74
2022/03/21 11:30:31;;;;;;;23.23;10.65;;;;;;;15.41;26.14;97725.44;4992409;28;20048;-74
2022/03/21 11:33:11;;;;;;;31.27;12.55;;;;;;;15.34;26.02;97723.13;5027119;28;20604;-73
2022/03/21 11:35:42;;;;;;;31.52;11.82;;;;;;;15.52;26.60;97709.50;5026137;28;20479;-74
2022/03/21 11:38:24;;;;;;;32.40;12.80;;;;;;;15.55;25.32;97714.34;5026881;28;20535;-74
2022/03/21 11:40:51;;;;;;;29.98;11.45;;;;;;;15.60;26.71;97711.47;5030881;28;20456;-74
2022/03/21 11:43:30;;;;;;;32.75;11.75;;;;;;;15.76;25.96;97704.44;5029805;28;20055;-74
2022/03/21 11:45:57;;;;;;;27.63;11.55;;;;;;;15.77;26.55;97706.09;5047933;28;20541;-74